Time;durP1;ratioP1;P1;durP2;ratioP2;P2;SDS_P1;SDS_P2;PMS_P1;PMS_P2;Temp;Humidity;BMP_temperature;BMP_pressure;BME280_temperature;BME280_humidity;BME280_pressure;Samples;Min_cycle;Max_cycle;Signal;HPM_P1;HPM_P2
2022/05/19 00:01:58;;;;;;;14.18;7.90;;;;;;;;;;5045519;28;20128;-79
2022/05/19 00:04:26;;;;;;;12.18;7.35;;;;;;;;;;5049053;28;20095;-79
2022/05/19 00:06:53;;;;;;;15.05;7.85;;;;;;;;;;5046925;28;20092;-79
2022/05/19 00:09:20;;;;;;;10.63;8.00;;;;;;;;;;5018503;28;20124;-79
2022/05/19 00:11:48;;;;;;;14.60;7.88;;;;;;;;;;5045815;28;20142;-79
2022/05/19 00:14:16;;;;;;;10.40;7.97;;;;;;;;;;5038187;28;20077;-79
2022/05/19 00:16:43;;;;;;;12.32;8.02;;;;;;;;;;5048598;28;20080;-79
2022/05/19 00:19:12;;;;;;;13.05;7.93;;;;;;;;;;5048408;28;20762;-79
2022/05/19 00:21:39;;;;;;;12.57;7.95;;;;;;;;;;5027410;28;20084;-79
2022/05/19 00:24:07;;;;;;;12.82;8.25;;;;;;;;;;5020951;28;20092;-79
2022/05/19 00:26:34;;;;;;;11.73;8.23;;;;;;;;;;5048095;28;20556;-78
2022/05/19 00:29:02;;;;;;;11.70;7.95;;;;;;;;;;5046656;28;20091;-79
2022/05/19 00:31:31;;;;;;;12.43;8.15;;;;;;;;;;5037099;28;20135;-79
2022/05/19 00:33:59;;;;;;;15.50;7.65;;;;;;;;;;5043039;28;20045;-79
2022/05/19 00:36:26;;;;;;;12.38;8.60;;;;;;;;;;5047437;28;20081;-79
2022/05/19 00:38:54;;;;;;;13.25;8.88;;;;;;;;;;5020974;28;20141;-79
2022/05/19 00:41:21;;;;;;;14.55;8.50;;;;;;;;;;5046862;28;20080;-79
2022/05/19 00:44:02;;;;;;;11.38;8.00;;;;;;;;;;5021946;28;20061;-79
2022/05/19 00:46:33;;;;;;;11.73;8.23;;;;;;;;;;5048079;28;20669;-79
2022/05/19 00:49:05;;;;;;;12.07;8.20;;;;;;;;;;5064962;28;20068;-79
2022/05/19 00:51:39;;;;;;;12.38;8.90;;;;;;;;;;5046075;28;20124;-78
2022/05/19 00:54:09;;;;;;;12.35;8.60;;;;;;;;;;5047669;28;20476;-79
2022/05/19 00:56:56;;;;;;;16.67;9.00;;;;;;;;;;5045702;28;20127;-78
2022/05/19 00:59:28;;;;;;;14.50;8.57;;;;;;;;;;5045434;28;20118;-78
2022/05/19 01:01:55;;;;;;;13.63;8.80;;;;;;;;;;5039035;28;20191;-78
2022/05/19 01:04:28;;;;;;;16.17;9.27;;;;;;;;;;5039523;28;20052;-78
2022/05/19 01:06:58;;;;;;;13.40;8.90;;;;;;;;;;5018199;28;20478;-78
2022/05/19 01:09:25;;;;;;;14.73;9.68;;;;;;;;;;5032736;28;20048;-78
2022/05/19 01:11:55;;;;;;;13.02;8.52;;;;;;;;;;5046535;28;20147;-78
2022/05/19 01:14:22;;;;;;;15.98;9.30;;;;;;;;;;5023538;28;20060;-79
2022/05/19 01:16:50;;;;;;;11.07;8.60;;;;;;;;;;5045018;28;20099;-79
2022/05/19 01:19:24;;;;;;;15.40;9.43;;;;;;;;;;5043476;28;20128;-79
2022/05/19 01:21:51;;;;;;;14.73;9.23;;;;;;;;;;5050927;28;20099;-79
2022/05/19 01:24:25;;;;;;;15.43;9.05;;;;;;;;;;5029746;28;20092;-79
2022/05/19 01:26:53;;;;;;;17.17;9.70;;;;;;;;;;5031288;28;20053;-79
2022/05/19 01:29:23;;;;;;;11.40;8.93;;;;;;;;;;5048346;28;20507;-79
2022/05/19 01:31:58;;;;;;;23.45;10.02;;;;;;;;;;5031059;28;20076;-80
2022/05/19 01:34:27;;;;;;;17.17;9.50;;;;;;;;;;5031855;28;20053;-80
2022/05/19 01:36:55;;;;;;;12.20;8.80;;;;;;;;;;5048747;28;20551;-79
2022/05/19 01:39:23;;;;;;;14.55;9.10;;;;;;;;;;5031517;28;20498;-79
2022/05/19 01:42:09;;;;;;;16.83;9.10;;;;;;;;;;5048839;28;20405;-80
2022/05/19 01:44:47;;;;;;;17.38;9.55;;;;;;;;;;5049490;28;20556;-80
2022/05/19 01:47:23;;;;;;;13.15;8.90;;;;;;;;;;5034480;28;20153;-80
2022/05/19 01:49:54;;;;;;;12.05;9.27;;;;;;;;;;5016906;28;20045;-79
2022/05/19 01:52:39;;;;;;;15.75;8.90;;;;;;;;;;5048446;28;20107;-79
2022/05/19 01:55:08;;;;;;;;;;;;;;;;;;5048332;28;20107;-79
2022/05/19 01:57:37;;;;;;;10.52;8.80;;;;;;;;;;5030871;28;19925;-78
2022/05/19 02:00:09;;;;;;;18.98;9.52;;;;;;;;;;5048699;28;20135;-78
2022/05/19 02:02:57;;;;;;;14.32;9.25;;;;;;;;;;5048819;28;20135;-78
2022/05/19 02:05:43;;;;;;;16.65;9.88;;;;;;;;;;5036504;28;20081;-78
2022/05/19 02:08:13;;;;;;;11.57;9.35;;;;;;;;;;5030360;28;20812;-79
2022/05/19 02:10:43;;;;;;;12.45;9.45;;;;;;;;;;5036856;28;20124;-80
2022/05/19 02:13:10;;;;;;;13.30;9.40;;;;;;;;;;5028416;28;20136;-79
2022/05/19 02:15:39;;;;;;;14.88;9.75;;;;;;;;;;5049283;28;20481;-80
2022/05/19 02:18:07;;;;;;;16.70;9.90;;;;;;;;;;5022461;28;20844;-80
2022/05/19 02:20:34;;;;;;;15.35;10.13;;;;;;;;;;5021916;28;20072;-80
2022/05/19 02:23:01;;;;;;;12.20;9.63;;;;;;;;;;5012730;28;20102;-80
2022/05/19 02:25:36;;;;;;;16.95;10.02;;;;;;;;;;5017745;28;20217;-80
2022/05/19 02:28:07;;;;;;;13.00;9.57;;;;;;;;;;5025012;28;20059;-80
2022/05/19 02:30:36;;;;;;;17.73;10.23;;;;;;;;;;5028925;28;20156;-80
2022/05/19 02:33:03;;;;;;;16.63;10.57;;;;;;;;;;5007965;28;20188;-80
2022/05/19 02:35:31;;;;;;;13.18;9.95;;;;;;;;;;5027903;28;20091;-80
2022/05/19 02:37:58;;;;;;;14.07;9.20;;;;;;;;;;5031711;28;20049;-79
2022/05/19 02:40:27;;;;;;;14.32;9.65;;;;;;;;;;5043157;28;20137;-79
2022/05/19 02:42:55;;;;;;;13.65;10.32;;;;;;;;;;5046386;28;20160;-79
2022/05/19 02:45:22;;;;;;;16.63;10.77;;;;;;;;;;5026672;28;20045;-80
2022/05/19 02:47:50;;;;;;;13.70;10.52;;;;;;;;;;5032248;28;20160;-80
2022/05/19 02:50:18;;;;;;;19.75;11.10;;;;;;;;;;5015267;28;20135;-80
2022/05/19 02:52:45;;;;;;;15.55;10.88;;;;;;;;;;5050869;28;20726;-79
2022/05/19 02:55:13;;;;;;;15.30;10.90;;;;;;;;;;5031827;28;20073;-79
2022/05/19 02:57:40;;;;;;;16.10;10.65;;;;;;;;;;5033458;28;20084;-79
2022/05/19 03:00:09;;;;;;;14.85;11.20;;;;;;;;;;5033324;28;20666;-80
2022/05/19 03:02:38;;;;;;;18.88;10.90;;;;;;;;;;5035775;28;20790;-79
2022/05/19 03:05:06;;;;;;;15.18;10.70;;;;;;;;;;5024442;28;20057;-79
2022/05/19 03:07:33;;;;;;;16.40;11.52;;;;;;;;;;5018826;28;20084;-80
2022/05/19 03:10:00;;;;;;;15.55;10.80;;;;;;;;;;5020031;28;20084;-79
2022/05/19 03:12:27;;;;;;;17.10;12.02;;;;;;;;;;5051575;28;20053;-80
2022/05/19 03:14:55;;;;;;;22.67;11.48;;;;;;;;;;5033946;28;20882;-80
2022/05/19 03:17:22;;;;;;;17.95;11.20;;;;;;;;;;5019513;28;20587;-80
2022/05/19 03:19:52;;;;;;;24.33;11.63;;;;;;;;;;5012076;28;20081;-80
2022/05/19 03:22:20;;;;;;;18.35;12.10;;;;;;;;;;5036995;28;21369;-80
2022/05/19 03:24:47;;;;;;;22.75;11.95;;;;;;;;;;5022920;28;20106;-80
2022/05/19 03:27:15;;;;;;;22.63;12.73;;;;;;;;;;5041177;28;20123;-79
2022/05/19 03:29:42;;;;;;;18.15;10.82;;;;;;;;;;5036893;28;20722;-79
2022/05/19 03:32:09;;;;;;;17.45;11.77;;;;;;;;;;5029258;28;20060;-79
2022/05/19 03:34:37;;;;;;;17.92;12.38;;;;;;;;;;5014940;28;20508;-79
2022/05/19 03:37:04;;;;;;;27.27;12.20;;;;;;;;;;5037047;28;20076;-79
2022/05/19 03:39:32;;;;;;;18.95;12.73;;;;;;;;;;5025436;28;20553;-79
2022/05/19 03:41:59;;;;;;;16.80;12.13;;;;;;;;;;5045603;28;20145;-80
2022/05/19 03:44:26;;;;;;;19.83;12.18;;;;;;;;;;5021660;28;20081;-79
2022/05/19 03:46:53;;;;;;;15.38;12.48;;;;;;;;;;5049909;28;20080;-79
2022/05/19 03:49:21;;;;;;;22.80;12.27;;;;;;;;;;5012574;28;20053;-79
2022/05/19 03:51:48;;;;;;;22.35;12.50;;;;;;;;;;5041568;28;20680;-79
2022/05/19 03:54:15;;;;;;;20.10;11.48;;;;;;;;;;5029506;28;20041;-79
2022/05/19 03:56:42;;;;;;;19.67;12.25;;;;;;;;;;5046257;28;20075;-79
2022/05/19 03:59:09;;;;;;;19.52;12.25;;;;;;;;;;5038376;28;20087;-79
2022/05/19 04:01:37;;;;;;;17.13;12.07;;;;;;;;;;5029524;28;20719;-79
2022/05/19 04:04:04;;;;;;;19.58;12.60;;;;;;;;;;5047816;28;20056;-79
2022/05/19 04:06:31;;;;;;;19.20;12.10;;;;;;;;;;5037163;28;20136;-79
2022/05/19 04:08:58;;;;;;;39.08;14.95;;;;;;;;;;5016817;28;20390;-80
2022/05/19 04:11:26;;;;;;;23.92;12.20;;;;;;;;;;5024461;28;20120;-79
2022/05/19 04:13:53;;;;;;;22.13;12.30;;;;;;;;;;5016428;28;20100;-79
2022/05/19 04:16:21;;;;;;;28.75;13.15;;;;;;;;;;5030950;28;20077;-79
2022/05/19 04:18:48;;;;;;;18.58;11.73;;;;;;;;;;5019964;28;20050;-79
2022/05/19 04:21:15;;;;;;;17.02;11.52;;;;;;;;;;5036518;28;20072;-80
2022/05/19 04:23:42;;;;;;;35.47;13.00;;;;;;;;;;5052521;28;20077;-80
2022/05/19 04:26:10;;;;;;;13.60;11.63;;;;;;;;;;5029751;28;20073;-79
2022/05/19 04:28:37;;;;;;;20.05;11.82;;;;;;;;;;5032006;28;20127;-79
2022/05/19 04:31:04;;;;;;;19.77;11.55;;;;;;;;;;5017733;28;20076;-79
2022/05/19 04:33:31;;;;;;;28.80;12.18;;;;;;;;;;5010494;28;20049;-79
2022/05/19 04:35:58;;;;;;;20.95;12.05;;;;;;;;;;5034799;28;20148;-79
2022/05/19 04:38:26;;;;;;;28.02;11.98;;;;;;;;;;5017430;28;20061;-78
2022/05/19 04:40:53;;;;;;;29.20;12.43;;;;;;;;;;5014614;28;20089;-79
2022/05/19 04:43:22;;;;;;;16.13;11.10;;;;;;;;;;5027527;28;20048;-79
2022/05/19 04:45:50;;;;;;;20.33;11.48;;;;;;;;;;5022410;28;20144;-79
2022/05/19 04:48:18;;;;;;;19.80;11.48;;;;;;;;;;5038695;28;20147;-79
2022/05/19 04:50:45;;;;;;;17.80;11.05;;;;;;;;;;5033255;28;20041;-79
2022/05/19 04:53:13;;;;;;;17.58;10.88;;;;;;;;;;5042212;28;20128;-78
2022/05/19 04:55:40;;;;;;;19.42;11.85;;;;;;;;;;5056559;28;20052;-79
2022/05/19 04:58:08;;;;;;;17.95;11.65;;;;;;;;;;5030124;28;20534;-79
2022/05/19 05:00:36;;;;;;;16.70;11.43;;;;;;;;;;5036146;28;20093;-83
2022/05/19 05:03:05;;;;;;;25.67;11.82;;;;;;;;;;5031498;28;20053;-82
2022/05/19 05:05:32;;;;;;;17.27;10.95;;;;;;;;;;5038361;28;20053;-83
2022/05/19 05:07:59;;;;;;;17.40;11.43;;;;;;;;;;5055783;28;20131;-84
2022/05/19 05:10:27;;;;;;;16.55;12.00;;;;;;;;;;5028234;28;20123;-81
2022/05/19 05:12:54;;;;;;;20.52;11.23;;;;;;;;;;5035035;28;20501;-81
2022/05/19 05:15:21;;;;;;;19.27;11.85;;;;;;;;;;5049865;28;20155;-79
2022/05/19 05:17:48;;;;;;;18.98;11.50;;;;;;;;;;5037609;28;21058;-80
2022/05/19 05:20:15;;;;;;;21.17;11.00;;;;;;;;;;5021443;28;20147;-76
2022/05/19 05:22:43;;;;;;;19.60;10.90;;;;;;;;;;5041499;28;20049;-79
2022/05/19 05:25:14;;;;;;;22.27;12.52;;;;;;;;;;5044094;28;20161;-81
2022/05/19 05:27:43;;;;;;;19.70;12.05;;;;;;;;;;5050995;28;20428;-79
2022/05/19 05:30:11;;;;;;;19.05;11.35;;;;;;;;;;5034091;28;20771;-81
2022/05/19 05:32:39;;;;;;;18.20;11.52;;;;;;;;;;5028313;28;20702;-77
2022/05/19 05:35:08;;;;;;;17.20;10.77;;;;;;;;;;5046943;28;20068;-77
2022/05/19 05:37:36;;;;;;;18.45;11.15;;;;;;;;;;5047430;28;20697;-79
2022/05/19 05:40:07;;;;;;;18.35;10.85;;;;;;;;;;5041268;28;20530;-78
2022/05/19 05:42:34;;;;;;;13.70;11.02;;;;;;;;;;5002244;28;20106;-79
2022/05/19 05:45:02;;;;;;;15.55;10.85;;;;;;;;;;5024092;28;20493;-80
2022/05/19 05:47:29;;;;;;;21.58;10.60;;;;;;;;;;4991938;28;20053;-80
2022/05/19 05:50:03;;;;;;;19.13;10.65;;;;;;;;;;5019777;28;20122;-79
2022/05/19 05:52:31;;;;;;;20.30;10.43;;;;;;;;;;5049619;28;20092;-80
2022/05/19 05:54:59;;;;;;;15.40;10.57;;;;;;;;;;5049839;28;20133;-77
2022/05/19 05:57:30;;;;;;;14.20;10.60;;;;;;;;;;5031853;28;20587;-78
2022/05/19 05:59:57;;;;;;;14.02;10.10;;;;;;;;;;5031286;28;20631;-79
2022/05/19 06:02:24;;;;;;;14.98;10.27;;;;;;;;;;5049811;28;20052;-79
2022/05/19 06:04:51;;;;;;;21.10;10.55;;;;;;;;;;5049393;28;20122;-79
2022/05/19 06:07:19;;;;;;;19.35;10.20;;;;;;;;;;5049271;28;20053;-78
2022/05/19 06:09:46;;;;;;;11.57;9.35;;;;;;;;;;5051035;28;20136;-79
2022/05/19 06:12:13;;;;;;;17.35;10.23;;;;;;;;;;5048275;28;20045;-78
2022/05/19 06:14:41;;;;;;;18.40;10.85;;;;;;;;;;5030176;28;20160;-78
2022/05/19 06:17:08;;;;;;;21.40;10.32;;;;;;;;;;5047617;28;20102;-78
2022/05/19 06:19:35;;;;;;;19.10;10.00;;;;;;;;;;5030116;28;20128;-79
2022/05/19 06:22:02;;;;;;;15.73;9.93;;;;;;;;;;5049380;28;20049;-79
2022/05/19 06:24:33;;;;;;;15.27;9.57;;;;;;;;;;5048077;28;20569;-78
2022/05/19 06:27:00;;;;;;;17.58;9.77;;;;;;;;;;5047930;28;20135;-78
2022/05/19 06:29:27;;;;;;;34.83;9.52;;;;;;;;;;5029930;28;20045;-78
2022/05/19 06:31:54;;;;;;;13.73;8.95;;;;;;;;;;5047888;28;20049;-78
2022/05/19 06:34:21;;;;;;;14.07;9.50;;;;;;;;;;5048241;28;20053;-78
2022/05/19 06:36:48;;;;;;;11.90;8.80;;;;;;;;;;5047712;28;20073;-78
2022/05/19 06:39:16;;;;;;;13.50;8.70;;;;;;;;;;5047501;28;20129;-78
2022/05/19 06:42:02;;;;;;;15.48;8.88;;;;;;;;;;5030286;28;20126;-78
2022/05/19 06:44:35;;;;;;;22.30;9.70;;;;;;;;;;5030052;28;20057;-78
2022/05/19 06:47:02;;;;;;;24.67;9.35;;;;;;;;;;5047518;28;20095;-78
2022/05/19 06:49:30;;;;;;;18.33;9.85;;;;;;;;;;5047572;28;20084;-78
2022/05/19 06:51:57;;;;;;;14.32;8.18;;;;;;;;;;5047419;28;20072;-79
2022/05/19 06:54:24;;;;;;;14.63;8.07;;;;;;;;;;5047707;28;20140;-78
2022/05/19 06:56:50;;;;;;;10.88;8.07;;;;;;;;;;5047491;28;20076;-78
2022/05/19 06:59:18;;;;;;;12.18;8.02;;;;;;;;;;5047349;28;20086;-79
2022/05/19 07:01:46;;;;;;;32.35;9.20;;;;;;;;;;5028098;28;20073;-78
2022/05/19 07:04:14;;;;;;;19.50;7.90;;;;;;;;;;5047297;28;20136;-78
2022/05/19 07:06:42;;;;;;;17.88;8.27;;;;;;;;;;5047070;28;20858;-78
2022/05/19 07:09:09;;;;;;;12.27;8.05;;;;;;;;;;5047115;28;20057;-79
2022/05/19 07:11:36;;;;;;;17.48;8.77;;;;;;;;;;5029160;28;20102;-79
2022/05/19 07:14:05;;;;;;;9.52;6.95;;;;;;;;;;5029999;28;20248;-78
2022/05/19 07:16:33;;;;;;;12.77;7.88;;;;;;;;;;5046448;28;20469;-78
2022/05/19 07:21:47;;;;;;;21.48;7.10;;;;;;;;;;5046180;28;20127;-79
2022/05/19 07:24:15;;;;;;;11.32;7.43;;;;;;;;;;5048899;28;20088;-81
2022/05/19 07:26:48;;;;;;;12.35;6.65;;;;;;;;;;5051191;28;20128;-84
2022/05/19 07:29:16;;;;;;;11.57;6.35;;;;;;;;;;5051055;28;20136;-83
2022/05/19 07:31:43;;;;;;;17.77;7.03;;;;;;;;;;5051480;28;20150;-83
2022/05/19 07:34:11;;;;;;;15.23;7.28;;;;;;;;;;5050766;28;20128;-82
2022/05/19 07:36:39;;;;;;;8.45;6.82;;;;;;;;;;5050482;28;20126;-81
2022/05/19 07:39:06;;;;;;;12.40;7.35;;;;;;;;;;5050572;28;20079;-81
2022/05/19 07:41:35;;;;;;;11.93;6.72;;;;;;;;;;5046897;28;20060;-79
2022/05/19 07:44:03;;;;;;;8.88;6.70;;;;;;;;;;5031869;28;20088;-80
2022/05/19 07:46:31;;;;;;;52.03;12.38;;;;;;;;;;5047947;28;20088;-79
2022/05/19 07:48:58;;;;;;;23.98;7.72;;;;;;;;;;5027193;28;20053;-79
2022/05/19 07:51:27;;;;;;;13.05;7.85;;;;;;;;;;5043985;28;20061;-79
2022/05/19 07:53:55;;;;;;;13.35;6.47;;;;;;;;;;5046500;28;20083;-78
2022/05/19 07:56:22;;;;;;;20.40;7.15;;;;;;;;;;5045842;28;20949;-78
2022/05/19 07:58:52;;;;;;;12.27;6.78;;;;;;;;;;5046045;28;20412;-79
2022/05/19 08:01:19;;;;;;;10.77;6.88;;;;;;;;;;5045635;28;20532;-79
2022/05/19 08:03:46;;;;;;;12.85;6.32;;;;;;;;;;5029298;28;20060;-77
2022/05/19 08:06:14;;;;;;;11.10;6.40;;;;;;;;;;5025160;28;20528;-77
2022/05/19 08:08:41;;;;;;;10.25;6.32;;;;;;;;;;5043598;28;20056;-77
2022/05/19 08:11:08;;;;;;;9.07;6.50;;;;;;;;;;5043330;28;20123;-76
2022/05/19 08:16:22;;;;;;;7.22;5.95;;;;;;;;;;5043616;28;20179;-76
2022/05/19 08:18:50;;;;;;;16.65;6.72;;;;;;;;;;5043069;28;20056;-76
2022/05/19 08:21:18;;;;;;;10.00;6.30;;;;;;;;;;5042490;28;20055;-76
2022/05/19 08:23:47;;;;;;;13.13;5.90;;;;;;;;;;5025699;28;20516;-76
2022/05/19 08:26:14;;;;;;;11.88;5.85;;;;;;;;;;5043091;28;20083;-76
2022/05/19 08:28:42;;;;;;;13.15;5.45;;;;;;;;;;5043147;28;20049;-76
2022/05/19 08:31:10;;;;;;;9.57;5.50;;;;;;;;;;5042719;28;20163;-76
2022/05/19 08:33:38;;;;;;;9.27;5.25;;;;;;;;;;5046609;28;20045;-76
2022/05/19 08:36:05;;;;;;;17.45;5.90;;;;;;;;;;5028993;28;20049;-76
2022/05/19 08:38:33;;;;;;;40.97;6.07;;;;;;;;;;5047110;28;20088;-76
2022/05/19 08:41:15;;;;;;;10.63;5.05;;;;;;;;;;5029154;28;20084;-76
2022/05/19 08:43:44;;;;;;;9.25;5.15;;;;;;;;;;5046937;28;20076;-76
2022/05/19 08:46:19;;;;;;;10.88;5.22;;;;;;;;;;5046827;28;20076;-76
2022/05/19 08:48:46;;;;;;;;;;;;;;;;;;5047327;28;20210;-76
2022/05/19 08:51:14;;;;;;;17.73;5.32;;;;;;;;;;5046766;28;20046;-76
2022/05/19 08:53:42;;;;;;;52.30;6.65;;;;;;;;;;5047053;28;20168;-76
2022/05/19 08:56:27;;;;;;;11.73;5.47;;;;;;;;;;5046929;28;20152;-76
2022/05/19 08:58:54;;;;;;;;;;;;;;;;;;5048157;28;21003;-76
2022/05/19 09:01:37;;;;;;;7.65;4.45;;;;;;;;;;5047618;28;19982;-76
2022/05/19 09:04:26;;;;;;;7.15;4.25;;;;;;;;;;5046872;28;20820;-76
2022/05/19 09:10:03;;;;;;;14.82;4.63;;;;;;;;;;5046445;28;20053;-76
2022/05/19 09:12:32;;;;;;;6.68;3.70;;;;;;;;;;5045826;28;20080;-76
2022/05/19 09:14:59;;;;;;;9.00;3.97;;;;;;;;;;5046128;28;20211;-76
2022/05/19 09:17:29;;;;;;;10.80;3.60;;;;;;;;;;5046597;28;20045;-76
2022/05/19 09:19:58;;;;;;;12.75;4.20;;;;;;;;;;5046220;28;20073;-77
2022/05/19 09:22:26;;;;;;;24.88;3.97;;;;;;;;;;5028725;28;20053;-78
2022/05/19 09:24:54;;;;;;;9.18;3.97;;;;;;;;;;5047871;28;20164;-78
2022/05/19 09:27:22;;;;;;;7.82;3.78;;;;;;;;;;5032420;28;20140;-77
2022/05/19 09:29:52;;;;;;;9.52;4.18;;;;;;;;;;5047410;28;20509;-78
2022/05/19 09:32:24;;;;;;;10.73;4.15;;;;;;;;;;5027967;28;20552;-78
2022/05/19 09:34:52;;;;;;;9.32;4.57;;;;;;;;;;5046107;28;20072;-78
2022/05/19 09:37:36;;;;;;;12.30;4.88;;;;;;;;;;5045651;28;20048;-78
2022/05/19 09:40:12;;;;;;;11.27;4.13;;;;;;;;;;5045646;28;20144;-78
2022/05/19 09:43:10;;;;;;;6.88;3.97;;;;;;;;;;5030637;28;20049;-78
2022/05/19 09:45:48;;;;;;;8.05;4.30;;;;;;;;;;5019349;28;20075;-77
2022/05/19 09:48:20;;;;;;;3.92;3.50;;;;;;;;;;5045765;28;20045;-78
2022/05/19 09:50:50;;;;;;;8.07;4.03;;;;;;;;;;5045505;28;20123;-77
2022/05/19 09:53:25;;;;;;;4.50;3.88;;;;;;;;;;5046177;28;20211;-77
2022/05/19 09:55:56;;;;;;;9.50;3.88;;;;;;;;;;5045224;28;20045;-78
2022/05/19 09:58:26;;;;;;;8.43;3.50;;;;;;;;;;5045298;28;20144;-77
2022/05/19 10:00:54;;;;;;;7.45;3.63;;;;;;;;;;5044962;28;20720;-77
2022/05/19 10:03:24;;;;;;;9.90;3.60;;;;;;;;;;5045913;28;20123;-77
2022/05/19 10:05:55;;;;;;;10.25;3.60;;;;;;;;;;5045356;28;20044;-77
2022/05/19 10:08:39;;;;;;;11.27;4.10;;;;;;;;;;5045568;28;20140;-78
2022/05/19 10:11:13;;;;;;;26.05;4.85;;;;;;;;;;5026828;28;20116;-77
2022/05/19 10:13:46;;;;;;;8.20;3.35;;;;;;;;;;5045866;28;20056;-78
2022/05/19 10:16:29;;;;;;;8.88;3.28;;;;;;;;;;5045416;28;20095;-78
2022/05/19 10:19:06;;;;;;;8.80;2.80;;;;;;;;;;5045200;28;20421;-77
2022/05/19 10:21:53;;;;;;;8.82;3.55;;;;;;;;;;5027013;28;20111;-77
2022/05/19 10:24:38;;;;;;;6.15;3.20;;;;;;;;;;5045349;28;20705;-77
2022/05/19 10:33:08;;;;;;;6.45;3.10;;;;;;;;;;5044797;28;20134;-77
2022/05/19 10:35:59;;;;;;;7.57;3.10;;;;;;;;;;5044922;28;20056;-77
2022/05/19 10:38:34;;;;;;;5.55;3.33;;;;;;;;;;5044760;28;20132;-77
2022/05/19 10:41:06;;;;;;;8.90;3.45;;;;;;;;;;5044477;28;20198;-78
2022/05/19 10:43:57;;;;;;;7.82;2.85;;;;;;;;;;5044927;28;20102;-77
2022/05/19 10:46:28;;;;;;;9.27;2.92;;;;;;;;;;5034210;28;20155;-77
2022/05/19 10:49:01;;;;;;;80.47;8.30;;;;;;;;;;5044312;28;20056;-77
2022/05/19 10:51:41;;;;;;;8.55;3.97;;;;;;;;;;5044443;28;20052;-78
2022/05/19 10:54:14;;;;;;;4.50;2.58;;;;;;;;;;5044427;28;20136;-78
2022/05/19 10:56:52;;;;;;;5.68;2.63;;;;;;;;;;5044036;28;20080;-77
2022/05/19 10:59:20;;;;;;;5.80;2.65;;;;;;;;;;5044014;28;20059;-77
2022/05/19 11:02:13;;;;;;;24.02;3.78;;;;;;;;;;5026301;28;20136;-77
2022/05/19 11:04:40;;;;;;;13.73;3.23;;;;;;;;;;5013986;28;20048;-77
2022/05/19 11:07:27;;;;;;;13.15;2.95;;;;;;;;;;5027370;28;20386;-77
2022/05/19 11:10:20;;;;;;;8.73;2.72;;;;;;;;;;5044282;28;20136;-77
2022/05/19 11:12:47;;;;;;;24.67;3.50;;;;;;;;;;5026277;28;20045;-77
2022/05/19 11:15:33;;;;;;;27.80;4.25;;;;;;;;;;5044162;28;20080;-77
2022/05/19 11:18:07;;;;;;;5.07;3.10;;;;;;;;;;5026104;28;20543;-77
2022/05/19 11:20:38;;;;;;;12.70;2.65;;;;;;;;;;5043485;28;20657;-77
2022/05/19 11:23:13;;;;;;;8.57;3.05;;;;;;;;;;5043930;28;20084;-77
2022/05/19 11:28:37;;;;;;;5.53;2.85;;;;;;;;;;5043648;28;20139;-76
2022/05/19 11:31:14;;;;;;;8.15;2.42;;;;;;;;;;5035405;28;20843;-77
2022/05/19 11:33:43;;;;;;;18.95;2.90;;;;;;;;;;5025866;28;20681;-77
2022/05/19 11:36:17;;;;;;;11.45;3.05;;;;;;;;;;5025857;28;20156;-77
2022/05/19 11:39:07;;;;;;;4.90;2.30;;;;;;;;;;5043359;28;20830;-76
2022/05/19 11:41:36;;;;;;;4.78;2.70;;;;;;;;;;5043489;28;20152;-77
2022/05/19 11:44:21;;;;;;;12.10;3.25;;;;;;;;;;5043648;28;20677;-77
2022/05/19 11:46:57;;;;;;;2.95;2.53;;;;;;;;;;5038509;28;20167;-77
2022/05/19 11:55:18;;;;;;;13.68;3.38;;;;;;;;;;5023103;28;20077;-77
2022/05/19 11:57:45;;;;;;;;;;;;;;;;;;5038601;28;20048;-77
2022/05/19 12:00:13;;;;;;;12.00;3.08;;;;;;;;;;5025384;28;20003;-77
2022/05/19 12:02:52;;;;;;;5.10;3.40;;;;;;;;;;5035288;28;20405;-76
2022/05/19 12:05:25;;;;;;;24.13;3.10;;;;;;;;;;5011276;28;20118;-77
2022/05/19 12:07:54;;;;;;;3.53;2.58;;;;;;;;;;5023616;28;20157;-77
2022/05/19 12:10:30;;;;;;;5.78;2.63;;;;;;;;;;5008670;28;20073;-77
2022/05/19 12:13:00;;;;;;;17.38;3.28;;;;;;;;;;5025018;28;20124;-77
2022/05/19 12:15:59;;;;;;;12.57;3.13;;;;;;;;;;5012343;28;20140;-77
2022/05/19 12:18:27;;;;;;;23.48;3.42;;;;;;;;;;4980663;28;21185;-76
2022/05/19 12:21:00;;;;;;;4.55;2.78;;;;;;;;;;5016214;28;20768;-77
2022/05/19 12:23:28;;;;;;;9.93;3.88;;;;;;;;;;4992872;28;21122;-76
2022/05/19 12:25:59;;;;;;;25.05;3.92;;;;;;;;;;5026745;28;20122;-77
2022/05/19 12:28:32;;;;;;;30.20;3.55;;;;;;;;;;5004472;28;20107;-77
2022/05/19 12:34:02;;;;;;;6.00;3.20;;;;;;;;;;5021514;28;20068;-77
2022/05/19 12:36:50;;;;;;;20.13;5.13;;;;;;;;;;5026632;28;20152;-76
2022/05/19 12:39:17;;;;;;;18.45;3.08;;;;;;;;;;5015264;28;20098;-76
2022/05/19 12:41:50;;;;;;;5.50;3.33;;;;;;;;;;5033942;28;21204;-76
2022/05/19 12:44:41;;;;;;;31.83;4.65;;;;;;;;;;5016311;28;20556;-76
2022/05/19 12:47:08;;;;;;;6.43;3.17;;;;;;;;;;5036040;28;20057;-76
2022/05/19 12:49:36;;;;;;;4.32;3.30;;;;;;;;;;5025614;28;20496;-76
2022/05/19 12:52:14;;;;;;;14.32;4.78;;;;;;;;;;5038872;28;20046;-76
2022/05/19 12:55:00;;;;;;;6.80;3.40;;;;;;;;;;5024990;28;20046;-76
2022/05/19 12:57:29;;;;;;;5.75;3.60;;;;;;;;;;5025749;28;20150;-76
2022/05/19 13:00:08;;;;;;;56.25;7.53;;;;;;;;;;5031015;28;20728;-76
2022/05/19 13:02:40;;;;;;;7.80;3.40;;;;;;;;;;5021242;28;20056;-76
2022/05/19 13:05:31;;;;;;;11.48;4.05;;;;;;;;;;5025479;28;20047;-76
2022/05/19 13:08:02;;;;;;;6.57;3.90;;;;;;;;;;5021037;28;20067;-77
2022/05/19 13:10:38;;;;;;;10.27;3.33;;;;;;;;;;5033843;28;20171;-76
2022/05/19 13:13:24;;;;;;;15.13;3.72;;;;;;;;;;5035731;28;20538;-76
2022/05/19 13:15:57;;;;;;;11.13;3.67;;;;;;;;;;5013048;28;20735;-76
2022/05/19 13:18:27;;;;;;;5.82;3.05;;;;;;;;;;5008928;28;20134;-76
2022/05/19 13:21:03;;;;;;;6.68;3.20;;;;;;;;;;5035784;28;20045;-76
2022/05/19 13:23:30;;;;;;;7.22;3.40;;;;;;;;;;5045702;28;20177;-76
2022/05/19 13:26:04;;;;;;;7.50;3.20;;;;;;;;;;5042717;28;20088;-77
2022/05/19 13:31:23;;;;;;;12.25;3.72;;;;;;;;;;5026417;28;20049;-76
2022/05/19 13:33:52;;;;;;;7.63;3.75;;;;;;;;;;5026847;28;20060;-76
2022/05/19 13:36:30;;;;;;;9.88;3.58;;;;;;;;;;5035377;28;20120;-76
2022/05/19 13:39:04;;;;;;;6.25;2.85;;;;;;;;;;5009895;28;20150;-76
2022/05/19 13:41:32;;;;;;;6.15;3.22;;;;;;;;;;5035324;28;20780;-77
2022/05/19 13:44:01;;;;;;;14.23;3.67;;;;;;;;;;5010294;28;20885;-77
2022/05/19 13:46:28;;;;;;;23.85;3.85;;;;;;;;;;5044197;28;20149;-76
2022/05/19 13:48:58;;;;;;;5.47;3.25;;;;;;;;;;5026725;28;20699;-76
2022/05/19 13:51:25;;;;;;;7.40;3.50;;;;;;;;;;5033968;28;20045;-76
2022/05/19 13:54:00;;;;;;;7.15;3.33;;;;;;;;;;5026215;28;20095;-77
2022/05/19 13:56:40;;;;;;;6.65;3.55;;;;;;;;;;5025999;28;20124;-77
2022/05/19 13:59:09;;;;;;;8.30;3.42;;;;;;;;;;5024057;28;20135;-76
2022/05/19 14:01:38;;;;;;;9.70;3.53;;;;;;;;;;5035857;28;20045;-77
2022/05/19 14:04:14;;;;;;;9.48;3.13;;;;;;;;;;5030980;28;20060;-76
2022/05/19 14:06:41;;;;;;;8.20;3.60;;;;;;;;;;5033004;28;20731;-76
2022/05/19 14:09:20;;;;;;;4.53;3.15;;;;;;;;;;5020555;28;20133;-76
2022/05/19 14:11:47;;;;;;;21.05;3.92;;;;;;;;;;5026282;28;20084;-77
2022/05/19 14:14:23;;;;;;;7.68;3.22;;;;;;;;;;5034020;28;20080;-76
2022/05/19 14:17:13;;;;;;;4.32;3.17;;;;;;;;;;5025033;28;20042;-76
2022/05/19 14:19:42;;;;;;;12.27;3.90;;;;;;;;;;5028129;28;20084;-76
2022/05/19 14:22:15;;;;;;;13.18;3.92;;;;;;;;;;5028530;28;20049;-77
2022/05/19 14:24:45;;;;;;;12.65;4.05;;;;;;;;;;5038847;28;20088;-77
2022/05/19 14:27:13;;;;;;;6.90;4.05;;;;;;;;;;5032307;28;20493;-77
2022/05/19 14:29:42;;;;;;;8.30;3.85;;;;;;;;;;5021074;28;20073;-76
2022/05/19 14:32:39;;;;;;;8.07;3.78;;;;;;;;;;5015045;28;20208;-76
2022/05/19 14:35:17;;;;;;;8.75;3.65;;;;;;;;;;5019321;28;20135;-76
2022/05/19 14:37:49;;;;;;;9.95;3.80;;;;;;;;;;5002252;28;20449;-76
2022/05/19 14:43:08;;;;;;;5.57;3.65;;;;;;;;;;5026420;28;20484;-76
2022/05/19 14:45:58;;;;;;;8.60;3.70;;;;;;;;;;5022461;28;20183;-76
2022/05/19 14:48:26;;;;;;;7.20;3.92;;;;;;;;;;5019755;28;20050;-76
2022/05/19 14:50:55;;;;;;;9.85;4.15;;;;;;;;;;5023914;28;20057;-76
2022/05/19 14:53:24;;;;;;;18.42;3.78;;;;;;;;;;5020926;28;20139;-76
2022/05/19 14:55:59;;;;;;;6.75;3.78;;;;;;;;;;5008969;28;20686;-76
2022/05/19 14:58:26;;;;;;;;;;;;;;;;;;5025688;28;20132;-76
2022/05/19 15:00:54;;;;;;;4.25;3.20;;;;;;;;;;5029619;28;20014;-77
2022/05/19 15:03:21;;;;;;;10.90;3.90;;;;;;;;;;5023714;28;20061;-75
2022/05/19 15:05:49;;;;;;;6.47;3.50;;;;;;;;;;5032241;28;20048;-76
2022/05/19 15:08:16;;;;;;;8.48;3.92;;;;;;;;;;5040367;28;20127;-75
2022/05/19 15:10:44;;;;;;;8.98;3.30;;;;;;;;;;5034307;28;20081;-78
2022/05/19 15:13:12;;;;;;;9.32;3.47;;;;;;;;;;5021649;28;20561;-78
2022/05/19 15:15:40;;;;;;;5.20;3.70;;;;;;;;;;5066837;22;20056;-76
2022/05/19 15:18:08;;;;;;;4.43;3.65;;;;;;;;;;5060686;28;20052;-76
2022/05/19 15:20:39;;;;;;;4.65;3.42;;;;;;;;;;5041167;28;20049;-78
2022/05/19 15:23:07;;;;;;;17.75;4.15;;;;;;;;;;5055701;28;20152;-78
2022/05/19 15:25:34;;;;;;;16.00;3.58;;;;;;;;;;5062456;28;20182;-76